Meteo Giornale » Osservazioni meteo Iran » Bushehr Civ-Afb
ore: 03:30 - Osservazioni Meteo Bushehr Civ-Afb
Lat. 28° 59' N Lon. 50° 50' E Alt. 19 metri s.l.m.
35 °C
Sereno
Temp. 24 Ore
31 °C
41 °C
Nord/NOvest
33.3 Km/h
Dew point 22 °C
Umidità 47 %
Visibilità 7 Km
Il sole sorge alle ore 05:44
Il sole tramonta alle ore 18:29
| Data e Ora | Cielo e Fenomeni | T °C | DP °C | Um. % | Pres. hPa | Vis. km | Vento km/h | |
|---|---|---|---|---|---|---|---|---|
| Oggi h: 03:30 | Sereno | 35 | 22 | 47 | 998 | 7 | N/NO 33.3 | |
| Oggi h: 02:30 | Sereno | 35 | 22 | 47 | 998 | 0 | N/NO 31.5 | |
| Oggi h: 01:30 | Sereno | 36 | 22 | 44 | 998 | 0 | N/NO 31.5 | |
| Oggi h: 00:30 | Sereno | 37 | 23 | 44 | 998 | 0 | N/NO 35.2 | |
| Ieri h: 23:30 | Sereno | 37 | 24 | 47 | 998 | 0 | N/NO 31.5 | |
| Ieri h: 22:30 | Sereno | 38 | 24 | 45 | 998 | 0 | N/NO 29.6 | |
| Ieri h: 21:30 | Sereno | 39 | 23 | 40 | 998 | 0 | N/NO 29.6 | |
| Ieri h: 20:30 | Sereno | 39 | 24 | 42 | 997 | 0 | N/NO 29.6 | |
| Ieri h: 19:30 | Sereno | 38 | 25 | 47 | 997 | 0 | N/NO 31.5 | |
| Ieri h: 18:30 | Sereno | 39 | 24 | 42 | 996 | 0 | NO 25.9 | |
| Ieri h: 17:30 | Sereno | 39 | 25 | 45 | 997 | 0 | NO 22.2 | |
| Ieri h: 16:30 | Sereno | 39 | 26 | 48 | 997 | 0 | O/NO 22.2 | |
| Ieri h: 15:30 | Sereno | 38 | 28 | 57 | 997 | 0 | O/NO 25.9 | |
| Ieri h: 14:30 | Sereno | 38 | 29 | 60 | 998 | 0 | O/NO 25.9 | |
| Ieri h: 13:30 | Sereno | 38 | 28 | 57 | 999 | 0 | O/NO 18.5 | |
| Ieri h: 12:30 | Sereno | 38 | 26 | 50 | 999 | 0 | O/NO 22.2 | |
| Ieri h: 11:30 | Foschia | 39 | 26 | 48 | 1000 | 5 | O/NO 13 | |
| Ieri h: 11:00 | Foschia | 39 | 27 | 50 | 1000 | 5 | NO 16.7 | |
| Ieri h: 10:30 | Foschia | 41 | 24 | 38 | 1000 | 5 | NO 7.4 | |
| Ieri h: 10:00 | Foschia | 40 | 25 | 42 | 1000 | 5 | N 5.5 | |
| Ieri h: 09:30 | Foschia | 38 | 26 | 50 | 1000 | 5 | N 5.5 | |
| Ieri h: 09:00 | Foschia | 37 | 27 | 56 | 1000 | 5 | E/SE 7.4 | |
| Ieri h: 08:30 | Foschia | 35 | 28 | 67 | 1000 | 4 | E 7.4 | |
| Ieri h: 08:00 | Foschia | 35 | 28 | 67 | 1000 | 3 | N 5.5 | |
| Ieri h: 07:30 | Foschia | 33 | 28 | 75 | 1000 | 3 | E 9.3 | |
| Ieri h: 07:00 | Foschia | 32 | 28 | 79 | 1000 | 3 | E 7.4 | |
| Ieri h: 06:30 | Foschia | 31 | 27 | 79 | 1000 | 3 | E 7.4 | |
| Ieri h: 05:30 | Sereno | 32 | 27 | 74 | 1000 | 0 | E 7.4 | |
| Ieri h: 04:30 | Sereno | 33 | 28 | 75 | 999 | 0 | NO 7.4 | |



